Time;durP1;ratioP1;P1;durP2;ratioP2;P2;SDS_P1;SDS_P2;PMS_P1;PMS_P2;Temp;Humidity;BMP_temperature;BMP_pressure;BME280_temperature;BME280_humidity;BME280_pressure;Samples;Min_cycle;Max_cycle;Signal;HPM_P1;HPM_P2
2022/02/24 00:01:15;;;;;;;25.92;8.02;;;9.50;99.90;;;9.55;68.34;101406.06;5092062;28;20451;-63
2022/02/24 00:03:44;;;;;;;21.30;7.13;;;9.40;99.90;;;9.68;68.55;101418.50;5092219;28;20051;-63
2022/02/24 00:06:18;;;;;;;26.42;8.15;;;9.40;99.90;;;9.69;68.23;101411.47;5092600;28;20126;-63
2022/02/24 00:08:47;;;;;;;25.67;7.75;;;9.50;99.90;;;9.72;68.16;101414.13;5092429;28;20044;-63
2022/02/24 00:11:15;;;;;;;21.33;7.38;;;9.50;99.90;;;9.74;67.61;101400.06;5092538;28;20047;-64
2022/02/24 00:13:43;;;;;;;20.63;7.25;;;9.50;99.90;;;9.71;68.00;101401.78;5092008;28;20044;-64
2022/02/24 00:16:14;;;;;;;18.80;6.90;;;9.50;99.90;;;9.71;68.48;101392.13;5092101;28;20113;-63
2022/02/24 00:18:42;;;;;;;22.75;7.65;;;9.50;99.90;;;9.76;68.25;101385.09;5091936;28;20185;-63
2022/02/24 00:21:11;;;;;;;22.88;8.23;;;9.50;99.90;;;9.80;67.99;101386.91;5091826;28;20478;-71
2022/02/24 00:23:40;;;;;;;21.63;7.78;;;9.60;99.90;;;9.82;67.77;101390.44;5092062;28;20043;-65
2022/02/24 00:26:09;;;;;;;21.83;7.20;;;9.60;99.90;;;9.83;67.85;101378.97;5091777;28;20048;-64
2022/02/24 00:28:37;;;;;;;21.77;7.45;;;9.60;99.90;;;9.83;67.94;101380.75;5091782;28;20133;-64
2022/02/24 00:31:09;;;;;;;19.17;6.80;;;9.60;99.90;;;9.68;67.98;101360.38;5095054;28;20055;-64
2022/02/24 00:33:38;;;;;;;20.80;7.03;;;9.50;99.90;;;9.82;68.06;101371.94;5095902;28;20466;-64
2022/02/24 00:36:09;;;;;;;21.48;8.27;;;9.50;99.90;;;9.76;67.64;101371.91;5096305;28;20075;-64
2022/02/24 00:38:38;;;;;;;20.40;7.05;;;9.60;99.90;;;9.74;67.66;101352.50;5095974;28;20151;-64
2022/02/24 00:41:08;;;;;;;22.63;7.38;;;9.60;99.90;;;9.91;67.47;101373.78;5096126;28;20437;-65
2022/02/24 00:43:36;;;;;;;19.67;6.60;;;9.60;99.90;;;9.68;67.49;101348.94;5096049;28;20051;-65
2022/02/24 00:46:04;;;;;;;21.08;7.32;;;9.70;99.90;;;9.83;67.93;101372.84;5095898;28;20066;-64
2022/02/24 00:48:33;;;;;;;20.75;7.78;;;9.60;99.90;;;9.74;68.05;101352.50;5096067;28;20139;-64
2022/02/24 00:51:01;;;;;;;21.83;6.95;;;9.60;99.90;;;9.82;68.25;101361.38;5095566;28;20493;-64
2022/02/24 00:53:30;;;;;;;22.88;6.72;;;9.60;99.90;;;9.69;68.26;101351.59;5095560;28;20401;-64
2022/02/24 00:55:58;;;;;;;18.80;6.45;;;9.50;99.90;;;9.70;68.70;101355.09;5095297;28;20041;-64
2022/02/24 00:58:28;;;;;;;19.50;6.68;;;9.50;99.90;;;9.67;68.50;101350.72;5095314;28;20051;-64
2022/02/24 01:00:56;;;;;;;23.30;6.40;;;9.50;99.90;;;8.97;68.78;101209.41;5095255;28;20451;-64
2022/02/24 01:03:25;;;;;;;17.70;6.55;;;9.50;99.90;;;9.73;68.37;101353.41;5095128;28;20048;-64
2022/02/24 01:05:53;;;;;;;24.20;7.40;;;9.50;99.90;;;9.76;68.73;101348.13;5095606;28;20040;-65
2022/02/24 01:08:22;;;;;;;25.33;7.95;;;9.50;99.90;;;9.77;68.87;101349.91;5095027;28;20054;-64
2022/02/24 01:10:50;;;;;;;19.98;7.30;;;9.50;99.90;;;9.74;68.68;101331.38;5095031;28;20043;-64
2022/02/24 01:13:20;;;;;;;20.73;6.90;;;9.50;99.90;;;9.72;69.08;101337.50;5095087;28;20051;-64
2022/02/24 01:15:50;;;;;;;20.98;7.45;;;9.50;99.90;;;9.78;69.13;101330.53;5094903;28;20055;-64
2022/02/24 01:18:21;;;;;;;24.58;7.22;;;9.50;99.90;;;9.74;68.88;101327.84;5094840;28;20043;-63
2022/02/24 01:20:49;;;;;;;20.17;8.10;;;9.50;99.90;;;9.77;69.26;101318.22;5094850;28;20408;-65
2022/02/24 01:23:18;;;;;;;23.17;7.85;;;9.50;99.90;;;9.80;69.68;101323.50;5095038;28;20099;-64
2022/02/24 01:25:46;;;;;;;28.55;7.78;;;9.50;99.90;;;9.76;69.56;101316.41;5094711;28;20094;-64
2022/02/24 01:28:14;;;;;;;25.80;7.65;;;9.50;99.90;;;9.86;69.56;101310.31;5076738;28;20040;-64
2022/02/24 01:30:43;;;;;;;22.88;7.38;;;9.60;99.90;;;9.71;69.78;101312.88;5094860;28;20386;-63
2022/02/24 01:33:13;;;;;;;21.88;7.28;;;9.50;99.90;;;9.74;69.79;101310.25;5094555;28;20069;-64
2022/02/24 01:35:41;;;;;;;26.77;6.97;;;9.50;99.90;;;9.78;69.85;101298.81;5095125;28;20059;-64
2022/02/24 01:38:10;;;;;;;26.33;7.65;;;9.60;99.90;;;9.89;70.00;101283.91;5076398;28;20051;-64
2022/02/24 01:40:38;;;;;;;21.67;7.25;;;9.60;99.90;;;9.78;70.25;101266.22;5094379;28;20130;-64
2022/02/24 01:43:06;;;;;;;24.80;7.47;;;9.60;99.90;;;9.77;70.66;101285.63;5094304;28;20101;-64
2022/02/24 01:45:35;;;;;;;17.40;7.25;;;9.50;99.90;;;9.74;70.50;101273.25;5094309;28;20044;-63
2022/02/24 01:48:04;;;;;;;22.38;7.22;;;9.50;99.90;;;9.77;70.77;101286.50;5094518;28;20047;-64
2022/02/24 01:50:34;;;;;;;20.15;7.18;;;9.50;99.90;;;9.76;71.12;101274.16;5094231;28;20048;-64
2022/02/24 01:53:04;;;;;;;27.27;7.47;;;9.50;99.90;;;9.76;70.57;101258.31;5093949;28;20151;-64
2022/02/24 01:55:32;;;;;;;19.25;7.18;;;9.50;99.90;;;9.63;71.13;101260.88;5076137;28;20052;-64
2022/02/24 01:58:01;;;;;;;23.65;7.22;;;9.50;99.90;;;9.71;71.74;101267.09;5094095;28;20536;-64
2022/02/24 02:00:31;;;;;;;18.77;6.53;;;9.50;99.90;;;9.68;71.37;101260.00;5094118;28;20089;-64
2022/02/24 02:03:00;;;;;;;20.75;7.28;;;9.50;99.90;;;9.74;71.77;101249.50;5094260;28;20036;-63
2022/02/24 02:05:30;;;;;;;19.17;6.45;;;9.50;99.90;;;9.67;71.78;101252.09;5076016;28;20056;-65
2022/02/24 02:07:59;;;;;;;17.60;7.30;;;9.40;99.90;;;9.69;71.82;101232.75;5093993;28;20625;-63
2022/02/24 02:10:29;;;;;;;26.02;7.03;;;9.40;99.90;;;9.66;71.98;101235.34;5094165;28;20093;-64
2022/02/24 02:12:57;;;;;;;18.15;6.70;;;9.40;99.90;;;9.69;71.44;101227.47;5094188;28;20564;-64
2022/02/24 02:15:25;;;;;;;18.38;6.78;;;9.50;99.90;;;9.70;71.98;101226.56;5093851;28;20472;-63
2022/02/24 02:17:54;;;;;;;22.23;8.15;;;9.50;99.90;;;9.66;72.14;101224.78;5075898;28;20537;-64
2022/02/24 02:20:22;;;;;;;23.92;7.53;;;9.40;99.90;;;9.56;71.90;101209.78;5093740;28;20056;-64
2022/02/24 02:22:55;;;;;;;20.80;6.85;;;9.40;99.90;;;8.97;71.88;101116.19;5076064;28;20047;-63
2022/02/24 02:25:23;;;;;;;20.27;7.47;;;9.30;99.90;;;9.60;71.77;101214.19;5093767;28;20121;-65
2022/02/24 02:27:53;;;;;;;19.77;6.72;;;9.40;99.90;;;9.65;71.69;101220.41;5093677;28;20032;-64
2022/02/24 02:30:22;;;;;;;20.05;6.30;;;9.40;99.90;;;9.70;71.97;101207.19;5093620;28;20472;-64
2022/02/24 02:32:51;;;;;;;25.80;8.00;;;9.40;99.90;;;9.62;72.06;101211.59;5093886;28;20044;-63
2022/02/24 02:35:19;;;;;;;22.25;7.38;;;9.40;99.90;;;9.68;72.46;101203.66;5093671;28;20044;-64
2022/02/24 02:37:47;;;;;;;21.33;7.20;;;9.40;99.90;;;9.69;71.63;101198.41;5093789;28;20448;-64
2022/02/24 02:40:17;;;;;;;24.00;7.05;;;9.50;99.90;;;9.72;71.83;101208.09;5093646;28;20040;-64
2022/02/24 02:42:46;;;;;;;19.83;7.38;;;9.50;99.90;;;9.76;71.82;101200.19;5093846;28;20037;-64
2022/02/24 02:45:14;;;;;;;25.38;7.22;;;9.50;99.90;;;9.64;71.89;101194.00;5075327;28;20076;-64
2022/02/24 02:47:44;;;;;;;20.30;6.25;;;9.50;99.90;;;9.70;71.92;101186.06;5093819;28;20050;-64
2022/02/24 02:50:13;;;;;;;21.92;7.20;;;9.50;99.90;;;9.57;72.09;101187.78;5093704;28;20130;-63
2022/02/24 02:52:44;;;;;;;20.65;6.72;;;9.40;99.90;;;9.64;71.73;101184.28;5092316;28;20143;-63
2022/02/24 02:55:13;;;;;;;19.70;7.50;;;9.40;99.90;;;9.61;72.00;101172.81;5093305;28;20436;-63
2022/02/24 02:57:43;;;;;;;20.83;6.43;;;9.40;99.90;;;9.60;72.04;101177.22;5093340;28;20098;-64
2022/02/24 03:00:14;;;;;;;13.35;6.90;;;9.40;99.90;;;9.62;71.96;101175.47;5074998;28;20156;-64
2022/02/24 03:02:43;;;;;;;18.63;7.15;;;9.30;99.90;;;9.55;71.89;101168.41;5093400;28;20055;-64
2022/02/24 03:05:12;;;;;;;16.20;6.35;;;9.30;99.90;;;9.63;71.97;101145.56;5093268;28;20043;-64
2022/02/24 03:07:40;;;;;;;22.25;7.40;;;9.40;99.90;;;9.48;72.27;101129.66;5092842;28;20101;-63
2022/02/24 03:10:09;;;;;;;20.90;6.43;;;9.30;99.90;;;9.66;72.43;101150.84;5093146;28;20043;-64
2022/02/24 03:12:38;;;;;;;19.23;6.30;;;9.40;99.90;;;9.68;72.11;101146.44;5093136;28;20075;-64
2022/02/24 03:15:13;;;;;;;18.20;6.68;;;9.40;99.90;;;9.67;71.99;101144.69;5092679;28;20067;-63
2022/02/24 03:17:42;;;;;;;15.60;6.13;;;9.40;99.90;;;9.57;71.52;101115.59;5092812;28;20123;-63
2022/02/24 03:20:12;;;;;;;17.73;6.28;;;9.50;99.90;;;9.67;71.75;101126.22;5092932;28;20101;-63
2022/02/24 03:22:41;;;;;;;20.83;6.90;;;9.40;99.90;;;9.56;71.47;101130.53;5093217;28;20129;-63
2022/02/24 03:25:10;;;;;;;18.73;6.75;;;9.40;99.90;;;9.54;71.47;101113.81;5092988;28;20694;-63
2022/02/24 03:27:39;;;;;;;22.77;7.78;;;9.30;99.90;;;9.62;71.86;101109.44;5093937;28;20048;-64
2022/02/24 03:30:10;;;;;;;15.13;6.63;;;9.40;99.90;;;9.47;71.69;101085.63;5094234;28;20122;-62
2022/02/24 03:32:39;;;;;;;19.02;7.38;;;9.40;99.90;;;9.63;71.89;101108.59;5093920;28;20047;-64
2022/02/24 03:35:10;;;;;;;22.33;6.95;;;9.40;99.90;;;9.59;71.89;101105.91;5093984;28;20044;-65
2022/02/24 03:37:38;;;;;;;19.52;6.78;;;9.40;99.90;;;9.55;71.61;101102.41;5093828;28;20101;-63
2022/02/24 03:40:09;;;;;;;23.98;7.32;;;9.40;99.90;;;9.59;71.83;101103.28;5093743;28;20455;-63
2022/02/24 03:42:37;;;;;;;24.15;7.13;;;9.40;99.90;;;9.50;71.80;101082.13;5093985;28;20072;-62
2022/02/24 03:45:10;;;;;;;17.30;6.72;;;9.30;99.90;;;9.60;72.20;101110.34;5093924;28;20427;-62
2022/02/24 03:47:38;;;;;;;22.05;7.85;;;9.40;99.90;;;9.35;72.24;101056.56;5093937;28;20044;-62
2022/02/24 03:50:08;;;;;;;31.58;7.90;;;9.40;99.90;;;9.64;72.16;101107.69;5093606;28;20043;-63
2022/02/24 03:52:37;;;;;;;23.70;8.27;;;9.40;99.90;;;9.60;72.15;101103.28;5072088;28;20460;-63
2022/02/24 03:55:07;;;;;;;24.25;7.88;;;9.40;99.90;;;9.52;72.53;101109.44;5072201;28;20367;-63
2022/02/24 03:57:36;;;;;;;24.63;8.75;;;9.40;99.90;;;9.61;72.64;101109.44;5073882;28;20048;-64
2022/02/24 04:00:07;;;;;;;21.17;8.30;;;9.40;99.90;;;9.69;72.44;101086.59;5073527;28;20444;-63
2022/02/24 04:02:46;;;;;;;18.17;7.90;;;9.40;99.90;;;9.64;72.82;101094.50;5073621;28;20074;-63
2022/02/24 04:05:15;;;;;;;17.38;7.47;;;9.40;99.90;;;9.64;73.07;101075.16;5072328;28;20048;-63
2022/02/24 04:07:45;;;;;;;25.77;8.80;;;9.40;99.90;;;9.57;72.87;101076.00;5073483;28;20465;-64
2022/02/24 04:10:13;;;;;;;24.45;7.97;;;9.40;99.90;;;9.61;73.27;101081.28;5073003;28;20056;-63
2022/02/24 04:12:42;;;;;;;18.55;7.72;;;9.40;99.90;;;9.61;73.37;101072.47;5073328;28;20060;-64
2022/02/24 04:15:11;;;;;;;21.13;7.78;;;9.40;99.90;;;9.54;73.15;101079.50;5073147;28;20072;-63
2022/02/24 04:17:40;;;;;;;23.65;8.80;;;9.30;99.90;;;9.54;73.74;101084.78;5073047;28;20072;-63
2022/02/24 04:20:10;;;;;;;24.42;8.70;;;9.30;99.90;;;9.50;73.88;101064.53;5072974;28;20081;-64
2022/02/24 04:22:39;;;;;;;27.63;9.20;;;9.30;99.90;;;9.50;73.81;101074.22;5073293;28;20051;-63
2022/02/24 04:25:10;;;;;;;22.98;8.43;;;9.20;99.90;;;9.46;73.55;101073.34;5073264;28;20049;-63
2022/02/24 04:27:46;;;;;;;14.80;7.55;;;9.20;99.90;;;9.45;74.04;101065.38;5072944;28;20043;-64
2022/02/24 04:30:15;;;;;;;22.75;8.55;;;9.20;99.90;;;9.52;73.92;101068.06;5072983;28;20048;-63
2022/02/24 04:32:44;;;;;;;19.23;7.53;;;9.30;99.90;;;9.45;73.84;101066.28;5072952;28;20068;-63
2022/02/24 04:35:15;;;;;;;26.25;7.63;;;9.30;99.90;;;9.29;74.35;101048.59;5072808;28;20040;-63
2022/02/24 04:37:44;;;;;;;23.60;8.25;;;9.20;99.90;;;9.50;74.31;101068.94;5072926;28;20090;-64
2022/02/24 04:40:14;;;;;;;22.73;7.38;;;9.30;99.90;;;9.51;74.09;101068.03;5073162;28;20053;-65
2022/02/24 04:42:44;;;;;;;21.70;7.10;;;9.30;99.90;;;9.52;74.01;101059.25;5072832;28;20058;-63
2022/02/24 04:45:14;;;;;;;24.42;7.03;;;9.30;99.90;;;9.28;74.16;101012.53;5073100;28;20040;-64
2022/02/24 04:47:43;;;;;;;20.30;7.35;;;9.30;99.90;;;9.35;74.65;101030.16;5073353;28;20048;-63
2022/02/24 04:50:13;;;;;;;21.83;6.97;;;9.20;99.90;;;9.41;74.51;101047.75;5073217;28;20052;-63
2022/02/24 04:52:42;;;;;;;18.23;6.93;;;9.20;99.90;;;9.39;74.84;101029.28;5078926;28;20052;-63
2022/02/24 04:55:11;;;;;;;24.58;7.28;;;9.20;99.90;;;9.37;74.43;101031.03;5092779;28;20050;-63
2022/02/24 04:57:40;;;;;;;21.90;7.28;;;9.20;99.90;;;9.47;74.30;101021.38;5092856;28;20138;-63
2022/02/24 05:00:10;;;;;;;27.95;7.35;;;9.20;99.90;;;9.39;74.52;101026.66;5092793;28;20071;-62
2022/02/24 05:02:38;;;;;;;21.98;7.70;;;9.20;99.90;;;9.39;74.24;101024.00;5092823;28;20542;-63
2022/02/24 05:05:08;;;;;;;22.40;7.03;;;9.20;99.90;;;9.39;74.61;101018.72;5093084;28;20071;-65
2022/02/24 05:07:38;;;;;;;22.92;6.65;;;9.20;99.90;;;9.44;74.50;101017.00;5092749;28;20070;-63
2022/02/24 05:10:08;;;;;;;18.53;6.90;;;9.20;99.90;;;9.51;74.39;101012.59;5093037;28;20473;-63
2022/02/24 05:12:36;;;;;;;22.48;7.80;;;9.20;99.90;;;9.54;74.40;101015.25;5092968;28;20644;-61
2022/02/24 05:15:06;;;;;;;23.83;6.80;;;9.30;99.90;;;9.41;74.08;101001.13;5092574;28;20044;-63
2022/02/24 05:17:36;;;;;;;22.80;8.20;;;9.30;99.90;;;9.44;74.91;101000.28;5096549;28;20040;-62
2022/02/24 05:20:07;;;;;;;17.25;6.53;;;9.20;99.90;;;9.51;74.58;101000.28;5096543;28;20068;-62
2022/02/24 05:22:39;;;;;;;19.55;7.13;;;9.30;99.90;;;8.84;74.41;100887.53;5096638;28;20079;-61
2022/02/24 05:25:10;;;;;;;25.85;7.97;;;9.30;99.90;;;9.60;74.20;100996.78;5096591;28;20051;-61
2022/02/24 05:27:40;;;;;;;21.33;7.88;;;9.40;99.90;;;9.66;74.37;100975.66;5096365;28;20061;-61
2022/02/24 05:30:11;;;;;;;23.80;8.07;;;9.40;99.90;;;9.54;74.27;100976.50;5096520;28;20048;-61
2022/02/24 05:32:40;;;;;;;18.98;6.03;;;9.40;99.90;;;9.48;74.14;100987.09;5078331;28;20044;-61
2022/02/24 05:35:09;;;;;;;20.70;7.43;;;9.40;99.90;;;8.89;74.18;100851.50;5077787;28;20055;-61
2022/02/24 05:37:39;;;;;;;24.88;7.72;;;9.30;99.90;;;9.46;74.09;100973.00;5096611;28;20139;-61
2022/02/24 05:40:09;;;;;;;21.20;6.90;;;9.40;99.90;;;9.57;74.19;100958.06;5096338;28;20462;-61
2022/02/24 05:42:37;;;;;;;24.05;7.78;;;9.30;99.90;;;9.49;73.89;100946.59;5096572;28;20056;-61
2022/02/24 05:45:07;;;;;;;19.40;7.28;;;9.30;99.90;;;9.53;74.11;100955.41;5095955;28;20044;-61
2022/02/24 05:47:35;;;;;;;17.63;7.25;;;9.30;99.90;;;9.49;73.95;100948.34;5096171;28;20485;-61
2022/02/24 05:50:07;;;;;;;22.98;7.88;;;9.30;99.90;;;9.49;74.37;100946.59;5096412;28;20047;-62
2022/02/24 05:52:36;;;;;;;21.75;7.45;;;9.30;99.90;;;9.47;74.34;100937.78;5095864;28;20102;-61
2022/02/24 05:55:06;;;;;;;19.58;6.75;;;9.20;99.90;;;9.56;74.38;100929.88;5095783;28;20079;-61
2022/02/24 05:57:35;;;;;;;16.77;6.93;;;9.30;99.90;;;9.40;74.48;100920.19;5095988;28;20074;-61
2022/02/24 06:00:05;;;;;;;22.58;6.68;;;9.30;99.90;;;9.49;74.52;100927.22;5095725;28;20048;-61
2022/02/24 06:02:39;;;;;;;20.98;6.78;;;9.30;99.90;;;9.46;74.51;100914.94;5095686;28;20094;-63
2022/02/24 06:05:09;;;;;;;19.88;7.35;;;9.30;99.90;;;9.42;74.11;100926.34;5077655;28;20397;-62
2022/02/24 06:07:37;;;;;;;24.42;6.88;;;9.20;99.90;;;9.36;74.82;100906.97;5077564;28;20465;-62
2022/02/24 06:10:08;;;;;;;24.58;7.60;;;9.20;99.90;;;9.36;74.95;100917.53;5077536;28;20098;-61
2022/02/24 06:12:37;;;;;;;19.92;6.30;;;9.20;99.90;;;9.30;74.84;100910.50;5095389;28;20519;-61
2022/02/24 06:15:08;;;;;;;19.23;6.47;;;9.10;99.90;;;9.32;74.76;100908.75;5095370;28;20078;-62
2022/02/24 06:17:38;;;;;;;16.17;6.70;;;9.10;99.90;;;9.33;75.02;100899.94;5095495;28;20105;-62
2022/02/24 06:20:09;;;;;;;18.80;7.45;;;9.10;99.90;;;9.23;75.12;100877.06;5095262;28;20043;-61
2022/02/24 06:22:37;;;;;;;20.23;7.13;;;9.20;99.90;;;9.42;74.74;100905.25;5095514;28;20052;-62
2022/02/24 06:25:08;;;;;;;21.20;7.70;;;9.20;99.90;;;9.36;75.07;100896.44;5095171;28;20127;-62
2022/02/24 06:27:37;;;;;;;19.17;7.68;;;9.10;99.90;;;9.21;74.86;100877.94;5094298;28;20047;-62
2022/02/24 06:30:06;;;;;;;22.63;7.53;;;9.20;99.90;;;9.46;75.00;100888.53;5077203;28;20476;-61
2022/02/24 06:32:37;;;;;;;20.63;7.25;;;9.20;99.90;;;9.45;75.08;100897.31;5095023;28;20048;-62
2022/02/24 06:35:07;;;;;;;25.75;7.50;;;9.20;99.90;;;9.45;74.80;100897.31;5095052;28;20486;-61
2022/02/24 06:37:36;;;;;;;19.27;6.97;;;9.20;99.90;;;9.43;74.55;100898.19;5076950;28;20068;-61
2022/02/24 06:40:05;;;;;;;18.17;6.90;;;9.20;99.90;;;9.45;74.82;100884.13;5095179;28;20560;-61
2022/02/24 06:42:35;;;;;;;25.50;6.75;;;9.20;99.90;;;9.49;74.49;100871.78;5095022;28;20052;-61
2022/02/24 06:45:05;;;;;;;17.02;6.93;;;9.20;99.90;;;9.52;74.70;100874.44;5076788;28;20044;-62
2022/02/24 06:47:34;;;;;;;20.38;7.88;;;9.30;99.90;;;9.50;74.62;100866.53;5095184;28;20047;-62
2022/02/24 06:50:03;;;;;;;19.20;6.30;;;9.30;99.90;;;9.44;74.65;100869.16;5076830;28;20045;-62
2022/02/24 06:52:32;;;;;;;18.65;6.40;;;9.20;99.90;;;9.29;74.89;100855.09;5094445;28;20086;-61
2022/02/24 06:55:02;;;;;;;17.67;6.18;;;9.20;99.90;;;9.50;74.43;100874.44;5094609;28;20101;-62
2022/02/24 06:57:31;;;;;;;27.48;6.43;;;9.20;99.90;;;9.36;74.61;100862.13;5094308;28;20047;-62
2022/02/24 07:00:01;;;;;;;18.25;5.85;;;9.20;99.90;;;9.46;74.79;100866.53;5094407;28;20048;-62
2022/02/24 07:02:29;;;;;;;17.35;5.88;;;9.20;99.90;;;9.45;74.72;100835.69;5094508;28;20044;-62
2022/02/24 07:04:58;;;;;;;17.48;6.70;;;9.30;99.90;;;9.45;74.76;100839.22;5094455;28;20443;-61
2022/02/24 07:07:26;;;;;;;18.85;6.95;;;9.20;99.90;;;9.47;74.79;100841.88;5094209;28;20044;-62
2022/02/24 07:09:55;;;;;;;16.35;5.72;;;9.30;99.90;;;9.13;74.23;100793.50;5094034;28;20051;-63
2022/02/24 07:12:23;;;;;;;12.27;5.40;;;9.20;99.90;;;9.34;74.66;100819.00;5094162;28;20113;-62
2022/02/24 07:14:51;;;;;;;21.23;6.03;;;9.20;99.90;;;9.36;75.14;100827.78;5094455;28;20071;-62
2022/02/24 07:17:22;;;;;;;17.73;5.88;;;9.20;99.90;;;9.18;75.11;100809.31;5093814;28;20068;-62
2022/02/24 07:19:50;;;;;;;17.92;6.30;;;9.20;99.90;;;9.43;75.49;100824.25;5093988;28;20127;-62
2022/02/24 07:22:18;;;;;;;16.10;6.15;;;9.20;99.90;;;9.44;75.20;100824.28;5094309;28;20043;-62
2022/02/24 07:24:47;;;;;;;18.98;6.10;;;9.20;99.90;;;9.56;74.83;100826.91;5094520;28;20151;-62
2022/02/24 07:27:16;;;;;;;15.93;6.95;;;9.30;99.90;;;9.61;75.44;100816.34;5076082;28;20048;-62
2022/02/24 07:29:44;;;;;;;18.63;6.68;;;9.30;99.90;;;9.51;75.44;100810.19;5093723;28;20558;-62
2022/02/24 07:32:13;;;;;;;16.45;5.85;;;9.30;99.90;;;9.55;75.24;100797.84;5075880;28;20112;-62
2022/02/24 07:34:43;;;;;;;16.98;5.90;;;9.30;99.90;;;9.46;75.52;100792.59;5094123;28;20310;-62
2022/02/24 07:37:12;;;;;;;14.05;5.72;;;9.30;99.90;;;9.44;75.27;100797.00;5093748;28;20044;-62
2022/02/24 07:39:41;;;;;;;17.88;5.75;;;9.20;99.90;;;9.44;75.77;100797.88;5094090;28;20127;-63
2022/02/24 07:42:10;;;;;;;18.10;5.72;;;9.20;99.90;;;9.50;75.18;100778.53;5094161;28;20056;-62
2022/02/24 07:44:39;;;;;;;15.32;6.65;;;9.20;99.90;;;9.39;75.65;100791.72;5093880;28;20074;-61
2022/02/24 07:47:07;;;;;;;19.77;5.57;;;9.20;99.90;;;9.41;75.81;100799.63;5093927;28;20044;-62
2022/02/24 07:49:36;;;;;;;15.77;6.03;;;9.20;99.90;;;9.44;75.22;100784.69;5093576;28;20114;-62
2022/02/24 07:52:07;;;;;;;19.23;6.20;;;9.20;99.90;;;9.39;75.64;100801.41;5093331;28;20475;-62
2022/02/24 07:54:36;;;;;;;17.88;6.53;;;9.20;99.90;;;9.35;75.74;100779.41;5093837;28;20052;-62
2022/02/24 07:57:05;;;;;;;15.05;6.45;;;9.10;99.90;;;9.38;75.60;100784.69;5093611;28;20048;-62
2022/02/24 07:59:33;;;;;;;13.50;5.20;;;9.10;99.90;;;9.41;75.86;100784.69;5093491;28;20068;-63
2022/02/24 08:02:04;;;;;;;17.90;5.82;;;9.20;99.90;;;9.39;75.91;100786.44;5093463;28;20051;-63
2022/02/24 08:04:33;;;;;;;21.73;6.47;;;9.20;99.90;;;9.31;76.01;100756.53;5093450;28;20055;-64
2022/02/24 08:07:01;;;;;;;12.85;6.20;;;9.20;99.90;;;9.42;76.55;100783.81;5093444;28;20097;-63
2022/02/24 08:09:32;;;;;;;16.88;6.07;;;9.20;99.90;;;9.39;76.59;100778.50;5093581;28;20085;-62
2022/02/24 08:14:46;;;;;;;13.50;6.00;;;9.20;99.90;;;9.45;76.12;100769.72;5093549;28;20055;-62
2022/02/24 08:17:15;;;;;;;20.15;7.25;;;9.30;99.90;;;9.53;76.51;100773.22;5093175;28;20079;-62
2022/02/24 08:19:44;;;;;;;23.10;6.85;;;9.30;99.90;;;9.46;76.35;100771.47;5093706;28;20102;-64
2022/02/24 08:22:12;;;;;;;15.70;5.93;;;9.20;99.90;;;9.41;75.96;100783.78;5093138;28;20044;-64
2022/02/24 08:24:42;;;;;;;16.98;6.85;;;9.20;99.90;;;9.46;76.13;100766.19;5093151;28;20063;-64
2022/02/24 08:27:10;;;;;;;23.45;6.50;;;9.30;99.90;;;9.39;75.68;100733.66;5075153;28;20052;-65
2022/02/24 08:29:39;;;;;;;20.52;6.95;;;9.20;99.90;;;9.52;75.75;100747.72;5093059;28;20050;-63
2022/02/24 08:32:07;;;;;;;17.67;6.57;;;9.30;99.90;;;9.52;75.63;100747.72;5093039;28;20094;-65
2022/02/24 08:34:36;;;;;;;14.73;5.78;;;9.20;99.90;;;9.40;75.39;100722.22;5093087;28;20122;-65
2022/02/24 08:37:05;;;;;;;15.82;5.60;;;9.30;99.90;;;9.33;75.37;100731.00;5092864;28;20040;-65
2022/02/24 08:39:33;;;;;;;18.67;6.47;;;9.20;99.90;;;9.40;75.11;100727.50;5093106;28;20051;-65
2022/02/24 08:42:03;;;;;;;15.85;5.72;;;9.20;99.90;;;9.45;75.47;100732.75;5093259;28;20524;-65
2022/02/24 08:44:32;;;;;;;18.90;5.93;;;9.20;99.90;;;9.37;75.28;100709.00;5093313;28;20097;-65
2022/02/24 08:47:01;;;;;;;14.80;5.97;;;9.20;99.90;;;9.45;74.77;100698.44;5093191;28;20105;-66
2022/02/24 08:49:29;;;;;;;16.02;6.40;;;9.20;99.90;;;9.37;74.86;100694.97;5092874;28;20036;-67
2022/02/24 08:51:58;;;;;;;21.13;6.32;;;9.20;99.90;;;9.36;75.35;100675.59;5095795;28;20443;-66
2022/02/24 08:54:26;;;;;;;14.52;5.63;;;9.20;99.90;;;9.37;75.52;100692.31;5096905;28;20162;-65
2022/02/24 08:56:55;;;;;;;17.30;6.25;;;9.20;99.90;;;9.42;75.02;100688.78;5096751;28;20093;-66
2022/02/24 08:59:24;;;;;;;19.33;6.15;;;9.20;99.90;;;9.45;75.45;100665.00;5096736;28;20070;-64
2022/02/24 09:01:53;;;;;;;13.20;5.82;;;9.20;99.90;;;9.45;75.53;100646.53;5096820;28;20075;-63
2022/02/24 09:04:22;;;;;;;16.80;6.47;;;9.20;99.90;;;9.25;74.68;100608.78;5096925;28;20040;-67
2022/02/24 09:06:51;;;;;;;17.50;6.35;;;9.30;99.90;;;9.51;75.45;100654.44;5078764;28;20048;-64
2022/02/24 09:09:19;;;;;;;22.38;6.50;;;9.30;99.90;;;9.65;75.44;100647.34;5096581;28;20070;-65
2022/02/24 09:11:48;;;;;;;19.73;6.75;;;9.40;99.90;;;8.21;74.72;100419.19;5096786;28;20044;-66
2022/02/24 09:14:17;;;;;;;15.40;5.85;;;9.40;99.90;;;9.83;75.06;100636.66;5096527;28;20037;-64
2022/02/24 09:16:47;;;;;;;19.60;6.70;;;9.60;99.90;;;10.08;74.51;100641.81;5096428;28;20055;-65
2022/02/24 09:19:15;;;;;;;20.58;6.10;;;9.80;99.90;;;10.13;73.75;100618.91;5096481;28;20401;-66
2022/02/24 09:21:44;;;;;;;18.23;6.35;;;9.90;99.90;;;10.34;73.73;100627.56;5096710;28;20056;-68
2022/02/24 09:24:13;;;;;;;18.73;6.40;;;10.10;99.90;;;10.53;73.63;100604.53;5096338;28;20072;-63
2022/02/24 09:26:42;;;;;;;20.52;6.50;;;10.30;99.90;;;10.82;72.31;100629.81;5096857;28;20143;-65
2022/02/24 09:29:14;;;;;;;16.98;6.10;;;10.60;99.90;;;10.80;71.26;100567.25;5096316;28;20044;-67
2022/02/24 09:31:43;;;;;;;21.38;6.75;;;10.70;99.90;;;11.10;70.13;100593.38;5096175;28;20055;-65
2022/02/24 09:34:15;;;;;;;20.70;6.22;;;10.90;99.90;;;11.17;69.66;100600.31;5096486;28;20043;-65
2022/02/24 09:36:44;;;;;;;25.50;7.28;;;10.90;99.90;;;11.24;69.46;100574.69;5096158;28;20065;-67
2022/02/24 09:39:13;;;;;;;18.55;6.20;;;11.10;99.90;;;11.26;68.99;100554.34;5096066;28;20452;-67
2022/02/24 09:41:43;;;;;;;16.92;6.15;;;11.10;99.90;;;11.35;68.99;100578.94;5095737;28;20044;-67
2022/02/24 09:44:11;;;;;;;21.60;7.05;;;11.20;99.90;;;11.33;69.27;100543.66;5096031;28;20036;-67
2022/02/24 09:46:43;;;;;;;18.45;6.53;;;11.30;99.90;;;11.37;68.59;100542.72;5095983;28;20093;-67
2022/02/24 09:49:17;;;;;;;22.23;6.68;;;11.40;99.90;;;11.47;68.23;100528.47;5095843;28;20098;-67
2022/02/24 09:51:46;;;;;;;19.65;7.22;;;11.30;99.90;;;11.51;68.66;100559.31;5095859;28;20378;-67
2022/02/24 09:54:14;;;;;;;24.40;6.80;;;11.30;99.90;;;11.53;68.90;100560.19;5096136;28;20052;-67
2022/02/24 09:56:45;;;;;;;17.45;6.80;;;11.30;99.90;;;11.69;68.81;100543.19;5095725;28;20552;-67
2022/02/24 09:59:14;;;;;;;16.40;6.57;;;11.40;99.90;;;11.89;68.27;100547.31;5095859;28;20044;-67
2022/02/24 10:01:45;;;;;;;20.58;6.88;;;11.60;99.90;;;11.82;67.95;100535.97;5095142;28;20076;-68
2022/02/24 10:04:15;;;;;;;24.27;7.55;;;11.60;99.90;;;11.61;68.23;100528.28;5095018;28;20052;-67
2022/02/24 10:06:45;;;;;;;20.88;7.35;;;11.50;99.90;;;11.40;68.41;100500.31;5095484;28;20459;-67
2022/02/24 10:09:22;;;;;;;19.02;7.03;;;11.40;99.90;;;11.79;68.73;100531.56;5095844;28;20036;-67
2022/02/24 10:11:50;;;;;;;21.45;6.78;;;11.50;99.90;;;11.64;68.47;100444.34;5077615;28;20048;-67
2022/02/24 10:14:23;;;;;;;21.67;7.13;;;11.70;99.90;;;12.16;67.96;100507.13;5095624;28;20082;-67
2022/02/24 10:16:56;;;;;;;22.05;6.55;;;11.90;99.90;;;12.23;67.73;100517.59;5077505;28;20052;-67
2022/02/24 10:19:32;;;;;;;14.98;6.53;;;12.10;99.90;;;12.01;67.31;100495.00;5095356;28;20397;-67
2022/02/24 10:22:12;;;;;;;17.85;6.63;;;11.90;99.90;;;11.99;68.05;100495.94;5094727;28;20121;-68
2022/02/24 10:24:44;;;;;;;28.45;7.30;;;11.80;99.90;;;11.82;68.85;100492.69;5095316;28;20051;-68
2022/02/24 10:27:19;;;;;;;24.55;7.53;;;11.60;99.90;;;11.81;69.17;100467.09;5095273;28;20040;-68
2022/02/24 10:30:04;;;;;;;21.45;7.53;;;11.60;99.90;;;11.53;69.30;100499.28;5095162;28;20043;-68